sensor_id;sensor_type;location;lat;lon;timestamp;pressure;altitude;pressure_sealevel;temperature;humidity
69879;BME280;57161;43.136;24.706;2022-07-03T00:01:54;99484.19;;;23.44;69.29
69879;BME280;57161;43.136;24.706;2022-07-03T00:04:20;99498.88;;;23.26;69.99
69879;BME280;57161;43.136;24.706;2022-07-03T00:06:46;99487.94;;;23.09;70.76
69879;BME280;57161;43.136;24.706;2022-07-03T00:09:12;99489.28;;;23.08;71.07
69879;BME280;57161;43.136;24.706;2022-07-03T00:11:37;99483.78;;;22.98;71.45
69879;BME280;57161;43.136;24.706;2022-07-03T00:14:03;99488.84;;;23.00;71.56
69879;BME280;57161;43.136;24.706;2022-07-03T00:16:29;99500.25;;;23.00;72.10
69879;BME280;57161;43.136;24.706;2022-07-03T00:18:55;99494.31;;;22.96;72.04
69879;BME280;57161;43.136;24.706;2022-07-03T00:21:45;99474.53;;;22.86;71.84
69879;BME280;57161;43.136;24.706;2022-07-03T00:24:24;99472.03;;;22.81;71.91
69879;BME280;57161;43.136;24.706;2022-07-03T00:26:52;99473.66;;;22.84;72.23
69879;BME280;57161;43.136;24.706;2022-07-03T00:29:21;99473.25;;;22.77;72.31
69879;BME280;57161;43.136;24.706;2022-07-03T00:31:47;99483.19;;;22.76;72.65
69879;BME280;57161;43.136;24.706;2022-07-03T00:34:15;99471.94;;;22.79;72.49
69879;BME280;57161;43.136;24.706;2022-07-03T00:36:42;99466.97;;;22.79;72.12
69879;BME280;57161;43.136;24.706;2022-07-03T00:39:07;99470.19;;;22.85;71.96
69879;BME280;57161;43.136;24.706;2022-07-03T00:41:35;99477.13;;;22.82;71.85
69879;BME280;57161;43.136;24.706;2022-07-03T00:44:02;99468.09;;;22.86;71.63
69879;BME280;57161;43.136;24.706;2022-07-03T00:46:28;99467.56;;;22.77;71.76
69879;BME280;57161;43.136;24.706;2022-07-03T00:48:55;99464.13;;;22.79;71.60
69879;BME280;57161;43.136;24.706;2022-07-03T00:51:28;99472.41;;;22.87;71.39
69879;BME280;57161;43.136;24.706;2022-07-03T00:53:58;99480.97;;;22.87;71.38
69879;BME280;57161;43.136;24.706;2022-07-03T00:56:28;99473.78;;;22.86;71.65
69879;BME280;57161;43.136;24.706;2022-07-03T00:58:56;99469.56;;;22.87;71.52
69879;BME280;57161;43.136;24.706;2022-07-03T01:01:31;99470.19;;;22.85;71.73
69879;BME280;57161;43.136;24.706;2022-07-03T01:04:22;99471.94;;;22.79;71.99
69879;BME280;57161;43.136;24.706;2022-07-03T01:07:07;99477.25;;;22.72;71.95
69879;BME280;57161;43.136;24.706;2022-07-03T01:12:16;99474.28;;;22.70;72.11
69879;BME280;57161;43.136;24.706;2022-07-03T01:15:10;99472.94;;;22.71;72.07
69879;BME280;57161;43.136;24.706;2022-07-03T01:17:42;99461.19;;;22.65;72.37
69879;BME280;57161;43.136;24.706;2022-07-03T01:20:11;99449.69;;;22.63;71.84
69879;BME280;57161;43.136;24.706;2022-07-03T01:22:37;99470.06;;;22.83;71.21
69879;BME280;57161;43.136;24.706;2022-07-03T01:25:17;99464.09;;;22.91;70.95
69879;BME280;57161;43.136;24.706;2022-07-03T01:28:12;99446.03;;;22.86;71.07
69879;BME280;57161;43.136;24.706;2022-07-03T01:30:50;99461.50;;;22.95;71.17
69879;BME280;57161;43.136;24.706;2022-07-03T01:33:22;99454.19;;;22.92;71.05
69879;BME280;57161;43.136;24.706;2022-07-03T01:38:30;99464.88;;;22.80;71.32
69879;BME280;57161;43.136;24.706;2022-07-03T01:40:57;99459.03;;;22.77;71.55
69879;BME280;57161;43.136;24.706;2022-07-03T01:43:34;99470.81;;;22.72;71.88
69879;BME280;57161;43.136;24.706;2022-07-03T01:46:02;99462.91;;;22.70;72.02
69879;BME280;57161;43.136;24.706;2022-07-03T01:48:29;99455.25;;;22.61;72.30
69879;BME280;57161;43.136;24.706;2022-07-03T01:50:56;99455.88;;;22.60;72.42
69879;BME280;57161;43.136;24.706;2022-07-03T01:53:25;99456.88;;;22.64;72.11
69879;BME280;57161;43.136;24.706;2022-07-03T01:55:55;99460.69;;;22.57;72.30
69879;BME280;57161;43.136;24.706;2022-07-03T01:58:21;99428.72;;;22.33;72.74
69879;BME280;57161;43.136;24.706;2022-07-03T02:01:02;99457.75;;;22.55;72.56
69879;BME280;57161;43.136;24.706;2022-07-03T02:03:33;99460.34;;;22.51;72.95
69879;BME280;57161;43.136;24.706;2022-07-03T02:11:16;99453.81;;;22.49;73.00
69879;BME280;57161;43.136;24.706;2022-07-03T02:16:44;99455.41;;;22.52;72.52
69879;BME280;57161;43.136;24.706;2022-07-03T02:19:15;99432.75;;;22.42;72.62
69879;BME280;57161;43.136;24.706;2022-07-03T02:21:48;99446.47;;;22.57;72.26
69879;BME280;57161;43.136;24.706;2022-07-03T02:24:23;99447.84;;;22.56;72.25
69879;BME280;57161;43.136;24.706;2022-07-03T02:26:59;99449.94;;;22.56;72.29
69879;BME280;57161;43.136;24.706;2022-07-03T02:29:32;99440.19;;;22.47;72.67
69879;BME280;57161;43.136;24.706;2022-07-03T02:32:00;99426.84;;;22.38;72.81
69879;BME280;57161;43.136;24.706;2022-07-03T02:34:28;99438.47;;;22.42;72.91
69879;BME280;57161;43.136;24.706;2022-07-03T02:36:59;99419.16;;;22.29;73.03
69879;BME280;57161;43.136;24.706;2022-07-03T02:42:37;99442.94;;;22.33;73.06
69879;BME280;57161;43.136;24.706;2022-07-03T02:45:05;99435.03;;;22.20;73.15
69879;BME280;57161;43.136;24.706;2022-07-03T02:50:17;99445.91;;;22.24;73.46
69879;BME280;57161;43.136;24.706;2022-07-03T02:53:03;99445.91;;;22.24;73.63
69879;BME280;57161;43.136;24.706;2022-07-03T02:55:42;99447.16;;;22.21;73.44
69879;BME280;57161;43.136;24.706;2022-07-03T02:58:27;99450.28;;;22.13;73.67
69879;BME280;57161;43.136;24.706;2022-07-03T03:03:53;99454.34;;;22.10;74.01
69879;BME280;57161;43.136;24.706;2022-07-03T03:06:26;99446.16;;;22.04;73.85
69879;BME280;57161;43.136;24.706;2022-07-03T03:09:00;99449.66;;;22.14;73.67
69879;BME280;57161;43.136;24.706;2022-07-03T03:11:44;99460.78;;;22.22;73.09
69879;BME280;57161;43.136;24.706;2022-07-03T03:14:18;99463.63;;;22.22;73.35
69879;BME280;57161;43.136;24.706;2022-07-03T03:16:51;99443.22;;;22.14;73.45
69879;BME280;57161;43.136;24.706;2022-07-03T03:19:21;99463.72;;;22.36;73.06
69879;BME280;57161;43.136;24.706;2022-07-03T03:24:38;99471.75;;;22.51;72.54
69879;BME280;57161;43.136;24.706;2022-07-03T03:27:04;99472.84;;;22.58;72.11
69879;BME280;57161;43.136;24.706;2022-07-03T03:29:30;99469.47;;;22.61;72.09
69879;BME280;57161;43.136;24.706;2022-07-03T03:31:55;99465.88;;;22.61;71.63
69879;BME280;57161;43.136;24.706;2022-07-03T03:34:22;99473.78;;;22.86;70.88
69879;BME280;57161;43.136;24.706;2022-07-03T03:36:48;99459.03;;;22.77;70.96
69879;BME280;57161;43.136;24.706;2022-07-03T03:39:14;99473.13;;;22.99;70.75
69879;BME280;57161;43.136;24.706;2022-07-03T03:41:39;99484.97;;;23.07;70.07
69879;BME280;57161;43.136;24.706;2022-07-03T03:44:05;99483.44;;;23.18;69.70
69879;BME280;57161;43.136;24.706;2022-07-03T03:46:30;99476.59;;;23.23;69.50
69879;BME280;57161;43.136;24.706;2022-07-03T03:48:56;99474.38;;;23.21;69.20
69879;BME280;57161;43.136;24.706;2022-07-03T03:51:21;99481.78;;;23.26;69.47
69879;BME280;57161;43.136;24.706;2022-07-03T03:53:47;99484.97;;;23.32;69.13
69879;BME280;57161;43.136;24.706;2022-07-03T03:56:13;99480.34;;;23.39;69.28
69879;BME280;57161;43.136;24.706;2022-07-03T03:58:41;99480.19;;;23.49;68.97
69879;BME280;57161;43.136;24.706;2022-07-03T04:01:09;99484.47;;;23.61;68.72
69879;BME280;57161;43.136;24.706;2022-07-03T04:03:36;99481.84;;;23.65;68.18
69879;BME280;57161;43.136;24.706;2022-07-03T04:06:03;99478.97;;;23.65;68.00
69879;BME280;57161;43.136;24.706;2022-07-03T04:08:29;99489.03;;;23.67;68.28
69879;BME280;57161;43.136;24.706;2022-07-03T04:10:55;99478.38;;;23.55;68.52
69879;BME280;57161;43.136;24.706;2022-07-03T04:13:21;99487.13;;;23.71;68.34
69879;BME280;57161;43.136;24.706;2022-07-03T04:15:48;99485.78;;;23.86;68.03
69879;BME280;57161;43.136;24.706;2022-07-03T04:18:13;99494.25;;;23.98;67.85
69879;BME280;57161;43.136;24.706;2022-07-03T04:20:39;99486.44;;;24.12;67.65
69879;BME280;57161;43.136;24.706;2022-07-03T04:23:05;99484.53;;;24.16;67.51
69879;BME280;57161;43.136;24.706;2022-07-03T04:25:30;99485.09;;;24.27;66.72
69879;BME280;57161;43.136;24.706;2022-07-03T04:27:56;99481.94;;;24.34;66.21
69879;BME280;57161;43.136;24.706;2022-07-03T04:30:21;99479.19;;;24.36;66.36
69879;BME280;57161;43.136;24.706;2022-07-03T04:32:47;99473.47;;;24.36;66.06
69879;BME280;57161;43.136;24.706;2022-07-03T04:35:13;99477.91;;;24.39;66.14
69879;BME280;57161;43.136;24.706;2022-07-03T04:37:39;99477.59;;;24.47;66.07
69879;BME280;57161;43.136;24.706;2022-07-03T04:40:06;99473.91;;;24.44;66.45
69879;BME280;57161;43.136;24.706;2022-07-03T04:42:32;99484.88;;;24.36;66.43
69879;BME280;57161;43.136;24.706;2022-07-03T04:44:57;99490.50;;;24.34;66.46
69879;BME280;57161;43.136;24.706;2022-07-03T04:47:23;99473.97;;;24.19;66.70
69879;BME280;57161;43.136;24.706;2022-07-03T04:49:48;99481.25;;;24.22;66.86
69879;BME280;57161;43.136;24.706;2022-07-03T04:52:14;99478.09;;;24.16;67.04
69879;BME280;57161;43.136;24.706;2022-07-03T04:54:39;99481.59;;;24.28;67.01
69879;BME280;57161;43.136;24.706;2022-07-03T04:57:05;99508.25;;;24.46;66.78
69879;BME280;57161;43.136;24.706;2022-07-03T04:59:31;99505.19;;;24.56;66.60
69879;BME280;57161;43.136;24.706;2022-07-03T05:01:56;99504.13;;;24.63;66.44
69879;BME280;57161;43.136;24.706;2022-07-03T05:04:22;99501.34;;;24.79;66.00
69879;BME280;57161;43.136;24.706;2022-07-03T05:06:47;99491.47;;;24.96;65.64
69879;BME280;57161;43.136;24.706;2022-07-03T05:09:13;99506.59;;;25.12;65.17
69879;BME280;57161;43.136;24.706;2022-07-03T05:11:38;99499.63;;;25.31;64.28
69879;BME280;57161;43.136;24.706;2022-07-03T05:14:05;99476.84;;;25.33;63.82
69879;BME280;57161;43.136;24.706;2022-07-03T05:16:30;99504.78;;;25.64;63.21
69879;BME280;57161;43.136;24.706;2022-07-03T05:18:56;99513.03;;;25.71;62.97
69879;BME280;57161;43.136;24.706;2022-07-03T05:21:22;99500.72;;;25.69;62.58
69879;BME280;57161;43.136;24.706;2022-07-03T05:23:47;99503.91;;;25.75;62.69
69879;BME280;57161;43.136;24.706;2022-07-03T05:26:13;99511.94;;;25.79;62.52
69879;BME280;57161;43.136;24.706;2022-07-03T05:28:39;99514.69;;;25.77;62.30
69879;BME280;57161;43.136;24.706;2022-07-03T05:31:04;99504.34;;;25.69;62.51
69879;BME280;57161;43.136;24.706;2022-07-03T05:33:30;99512.00;;;25.81;62.54
69879;BME280;57161;43.136;24.706;2022-07-03T05:35:56;99512.28;;;25.87;62.22
69879;BME280;57161;43.136;24.706;2022-07-03T05:38:23;99516.91;;;25.94;62.06
69879;BME280;57161;43.136;24.706;2022-07-03T05:41:07;99516.66;;;26.03;61.70
69879;BME280;57161;43.136;24.706;2022-07-03T05:43:32;99509.81;;;26.11;61.62
69879;BME280;57161;43.136;24.706;2022-07-03T05:45:58;99518.75;;;26.19;61.57
69879;BME280;57161;43.136;24.706;2022-07-03T05:48:24;99514.31;;;26.31;61.46
69879;BME280;57161;43.136;24.706;2022-07-03T05:50:49;99509.63;;;26.38;60.73
69879;BME280;57161;43.136;24.706;2022-07-03T05:53:15;99500.81;;;26.34;60.44
69879;BME280;57161;43.136;24.706;2022-07-03T05:55:40;99520.41;;;26.55;60.20
69879;BME280;57161;43.136;24.706;2022-07-03T05:58:06;99502.28;;;26.51;59.83
69879;BME280;57161;43.136;24.706;2022-07-03T06:00:31;99516.44;;;26.80;58.67
69879;BME280;57161;43.136;24.706;2022-07-03T06:02:57;99517.53;;;26.89;57.97
69879;BME280;57161;43.136;24.706;2022-07-03T06:05:23;99510.47;;;27.08;56.64
69879;BME280;57161;43.136;24.706;2022-07-03T06:07:48;99526.50;;;27.33;56.49
69879;BME280;57161;43.136;24.706;2022-07-03T06:10:15;99507.00;;;27.47;55.89
69879;BME280;57161;43.136;24.706;2022-07-03T06:12:40;99524.56;;;27.73;55.60
69879;BME280;57161;43.136;24.706;2022-07-03T06:15:06;99517.53;;;27.96;55.30
69879;BME280;57161;43.136;24.706;2022-07-03T06:17:34;99524.59;;;28.13;54.61
69879;BME280;57161;43.136;24.706;2022-07-03T06:20:02;99528.38;;;28.17;54.28
69879;BME280;57161;43.136;24.706;2022-07-03T06:22:28;99530.16;;;28.26;53.93
69879;BME280;57161;43.136;24.706;2022-07-03T06:24:53;99529.06;;;28.35;54.04
69879;BME280;57161;43.136;24.706;2022-07-03T06:27:19;99522.94;;;28.45;53.59
69879;BME280;57161;43.136;24.706;2022-07-03T06:29:44;99522.84;;;28.63;52.81
69879;BME280;57161;43.136;24.706;2022-07-03T06:32:10;99517.34;;;28.49;52.71
69879;BME280;57161;43.136;24.706;2022-07-03T06:34:35;99517.09;;;28.63;51.87
69879;BME280;57161;43.136;24.706;2022-07-03T06:37:01;99516.34;;;28.82;51.34
69879;BME280;57161;43.136;24.706;2022-07-03T06:39:27;99519.75;;;28.96;50.82
69879;BME280;57161;43.136;24.706;2022-07-03T06:41:52;99521.94;;;28.98;51.20
69879;BME280;57161;43.136;24.706;2022-07-03T06:44:17;99505.13;;;29.12;50.78
69879;BME280;57161;43.136;24.706;2022-07-03T06:46:43;99511.97;;;29.23;50.01
69879;BME280;57161;43.136;24.706;2022-07-03T06:49:08;99506.72;;;29.39;49.82
69879;BME280;57161;43.136;24.706;2022-07-03T06:51:34;99513.72;;;29.32;50.60
69879;BME280;57161;43.136;24.706;2022-07-03T06:54:01;99514.97;;;29.49;49.93
69879;BME280;57161;43.136;24.706;2022-07-03T06:56:26;99502.25;;;29.56;49.17
69879;BME280;57161;43.136;24.706;2022-07-03T06:58:51;99512.44;;;29.83;49.06
69879;BME280;57161;43.136;24.706;2022-07-03T07:01:17;99500.03;;;30.02;47.99
69879;BME280;57161;43.136;24.706;2022-07-03T07:03:42;99507.31;;;30.29;48.07
69879;BME280;57161;43.136;24.706;2022-07-03T07:06:08;99515.97;;;30.57;47.79
69879;BME280;57161;43.136;24.706;2022-07-03T07:08:33;99489.34;;;30.59;46.38
69879;BME280;57161;43.136;24.706;2022-07-03T07:10:59;99503.56;;;30.25;47.42
69879;BME280;57161;43.136;24.706;2022-07-03T07:13:25;99497.88;;;30.03;47.79
69879;BME280;57161;43.136;24.706;2022-07-03T07:15:51;99503.56;;;30.25;48.04
69879;BME280;57161;43.136;24.706;2022-07-03T07:18:16;99504.81;;;30.43;46.72
69879;BME280;57161;43.136;24.706;2022-07-03T07:20:42;99501.66;;;30.59;46.64
69879;BME280;57161;43.136;24.706;2022-07-03T07:23:07;99491.34;;;30.52;47.27
69879;BME280;57161;43.136;24.706;2022-07-03T07:25:33;99506.56;;;30.81;46.49
69879;BME280;57161;43.136;24.706;2022-07-03T07:27:58;99507.00;;;30.99;46.14
69879;BME280;57161;43.136;24.706;2022-07-03T07:30:23;99506.91;;;30.95;46.67
69879;BME280;57161;43.136;24.706;2022-07-03T07:32:49;99499.56;;;31.18;46.03
69879;BME280;57161;43.136;24.706;2022-07-03T07:35:14;99492.25;;;31.15;45.61
69879;BME280;57161;43.136;24.706;2022-07-03T07:37:40;99513.09;;;30.83;46.56
69879;BME280;57161;43.136;24.706;2022-07-03T07:40:06;99508.00;;;30.82;46.08
69879;BME280;57161;43.136;24.706;2022-07-03T07:42:31;99511.41;;;30.74;46.87
69879;BME280;57161;43.136;24.706;2022-07-03T07:44:57;99507.53;;;30.91;46.23
69879;BME280;57161;43.136;24.706;2022-07-03T07:47:23;99507.09;;;30.75;45.94
69879;BME280;57161;43.136;24.706;2022-07-03T07:49:48;99501.03;;;30.63;46.06
69879;BME280;57161;43.136;24.706;2022-07-03T07:52:14;99502.94;;;30.80;45.47
69879;BME280;57161;43.136;24.706;2022-07-03T07:54:39;99500.56;;;31.00;45.81
69879;BME280;57161;43.136;24.706;2022-07-03T07:57:05;99496.03;;;31.21;44.95
69879;BME280;57161;43.136;24.706;2022-07-03T07:59:30;99488.59;;;31.42;44.08
69879;BME280;57161;43.136;24.706;2022-07-03T08:01:56;99502.59;;;31.56;44.51
69879;BME280;57161;43.136;24.706;2022-07-03T08:04:40;99493.72;;;31.76;43.70
69879;BME280;57161;43.136;24.706;2022-07-03T08:07:24;99495.13;;;31.75;43.66
69879;BME280;57161;43.136;24.706;2022-07-03T08:09:49;99500.94;;;31.45;43.66
69879;BME280;57161;43.136;24.706;2022-07-03T08:12:17;99503.84;;;31.47;44.12
69879;BME280;57161;43.136;24.706;2022-07-03T08:14:43;99491.13;;;31.58;44.01
69879;BME280;57161;43.136;24.706;2022-07-03T08:17:08;99503.34;;;31.56;43.83
69879;BME280;57161;43.136;24.706;2022-07-03T08:19:34;99510.59;;;31.25;43.84
69879;BME280;57161;43.136;24.706;2022-07-03T08:21:59;99511.94;;;30.94;44.96
69879;BME280;57161;43.136;24.706;2022-07-03T08:24:26;99493.28;;;30.97;44.75
69879;BME280;57161;43.136;24.706;2022-07-03T08:26:52;99507.75;;;31.27;44.36
69879;BME280;57161;43.136;24.706;2022-07-03T08:29:17;99511.84;;;31.48;43.77
69879;BME280;57161;43.136;24.706;2022-07-03T08:31:42;99501.34;;;31.63;43.65
69879;BME280;57161;43.136;24.706;2022-07-03T08:34:08;99506.13;;;31.82;42.89
69879;BME280;57161;43.136;24.706;2022-07-03T08:36:42;99513.72;;;31.67;43.72
69879;BME280;57161;43.136;24.706;2022-07-03T08:39:08;99517.13;;;31.90;43.82
69879;BME280;57161;43.136;24.706;2022-07-03T08:41:37;99517.81;;;32.22;43.15
69879;BME280;57161;43.136;24.706;2022-07-03T08:44:04;99512.16;;;32.29;42.63
69879;BME280;57161;43.136;24.706;2022-07-03T08:46:31;99521.56;;;32.29;42.16
69879;BME280;57161;43.136;24.706;2022-07-03T08:48:59;99516.31;;;32.21;42.69
69879;BME280;57161;43.136;24.706;2022-07-03T08:51:25;99519.53;;;32.36;42.01
69879;BME280;57161;43.136;24.706;2022-07-03T08:53:53;99512.09;;;32.63;41.21
69879;BME280;57161;43.136;24.706;2022-07-03T08:56:20;99520.50;;;32.48;41.40
69879;BME280;57161;43.136;24.706;2022-07-03T08:58:46;99509.28;;;32.29;42.01
69879;BME280;57161;43.136;24.706;2022-07-03T09:01:15;99500.47;;;32.22;41.90
69879;BME280;57161;43.136;24.706;2022-07-03T09:03:42;99509.69;;;32.15;41.90
69879;BME280;57161;43.136;24.706;2022-07-03T09:06:08;99515.50;;;32.17;41.44
69879;BME280;57161;43.136;24.706;2022-07-03T09:08:35;99518.59;;;31.91;42.20
69879;BME280;57161;43.136;24.706;2022-07-03T09:11:03;99500.53;;;31.90;42.20
69879;BME280;57161;43.136;24.706;2022-07-03T09:13:29;99506.97;;;32.23;40.99
69879;BME280;57161;43.136;24.706;2022-07-03T09:15:54;99513.63;;;32.30;40.76
69879;BME280;57161;43.136;24.706;2022-07-03T09:18:39;99514.97;;;32.24;40.46
69879;BME280;57161;43.136;24.706;2022-07-03T09:21:05;99500.81;;;32.39;40.71
69879;BME280;57161;43.136;24.706;2022-07-03T09:23:42;99507.25;;;32.37;39.86
69879;BME280;57161;43.136;24.706;2022-07-03T09:26:16;99494.03;;;32.26;39.51
69879;BME280;57161;43.136;24.706;2022-07-03T09:31:21;99498.34;;;32.25;38.13
69879;BME280;57161;43.136;24.706;2022-07-03T09:33:56;99493.94;;;32.22;38.46
69879;BME280;57161;43.136;24.706;2022-07-03T09:36:44;99506.66;;;32.43;38.40
69879;BME280;57161;43.136;24.706;2022-07-03T09:39:28;99495.13;;;32.45;38.42
69879;BME280;57161;43.136;24.706;2022-07-03T09:44:35;99486.75;;;32.61;38.37
69879;BME280;57161;43.136;24.706;2022-07-03T09:50:03;99477.28;;;32.99;39.06
69879;BME280;57161;43.136;24.706;2022-07-03T09:52:44;99471.91;;;33.23;38.80
69879;BME280;57161;43.136;24.706;2022-07-03T09:57:59;99468.41;;;33.83;38.52
69879;BME280;57161;43.136;24.706;2022-07-03T10:00:31;99473.75;;;33.51;38.45
69879;BME280;57161;43.136;24.706;2022-07-03T10:05:37;99456.78;;;32.82;39.02
69879;BME280;57161;43.136;24.706;2022-07-03T10:08:04;99451.22;;;32.97;38.69
69879;BME280;57161;43.136;24.706;2022-07-03T10:10:32;99440.44;;;33.01;39.02
69879;BME280;57161;43.136;24.706;2022-07-03T10:12:58;99449.31;;;33.13;38.46
69879;BME280;57161;43.136;24.706;2022-07-03T10:15:30;99454.19;;;33.47;37.81
69879;BME280;57161;43.136;24.706;2022-07-03T10:17:57;99452.03;;;33.50;37.67
69879;BME280;57161;43.136;24.706;2022-07-03T10:22:50;99442.50;;;33.95;36.85
69879;BME280;57161;43.136;24.706;2022-07-03T10:25:16;99442.06;;;34.19;36.55
69879;BME280;57161;43.136;24.706;2022-07-03T10:27:44;99439.44;;;33.83;37.04
69879;BME280;57161;43.136;24.706;2022-07-03T10:30:10;99430.59;;;33.69;37.81
69879;BME280;57161;43.136;24.706;2022-07-03T10:32:37;99434.13;;;33.63;37.86
69879;BME280;57161;43.136;24.706;2022-07-03T10:35:05;99419.78;;;33.73;36.97
69879;BME280;57161;43.136;24.706;2022-07-03T10:37:38;99415.41;;;33.70;36.90
69879;BME280;57161;43.136;24.706;2022-07-03T10:40:21;99403.00;;;33.64;37.69
69879;BME280;57161;43.136;24.706;2022-07-03T10:43:15;99416.00;;;33.61;37.04
69879;BME280;57161;43.136;24.706;2022-07-03T10:46:13;99404.59;;;33.23;37.37
69879;BME280;57161;43.136;24.706;2022-07-03T10:49:00;99397.16;;;33.09;38.07
69879;BME280;57161;43.136;24.706;2022-07-03T10:51:30;99401.81;;;33.31;37.81
69879;BME280;57161;43.136;24.706;2022-07-03T10:54:13;99405.69;;;33.48;37.38
69879;BME280;57161;43.136;24.706;2022-07-03T11:05:10;99397.34;;;34.37;37.18
69879;BME280;57161;43.136;24.706;2022-07-03T11:13:05;99394.44;;;34.37;36.43
69879;BME280;57161;43.136;24.706;2022-07-03T11:15:37;99388.00;;;33.82;37.75
69879;BME280;57161;43.136;24.706;2022-07-03T11:18:29;99381.28;;;33.12;38.79
69879;BME280;57161;43.136;24.706;2022-07-03T11:25:51;99377.16;;;33.28;39.00
69879;BME280;57161;43.136;24.706;2022-07-03T11:38:48;99378.03;;;32.46;40.20
69879;BME280;57161;43.136;24.706;2022-07-03T11:41:15;99375.41;;;32.60;39.58
69879;BME280;57161;43.136;24.706;2022-07-03T11:43:53;99372.38;;;32.98;39.17
69879;BME280;57161;43.136;24.706;2022-07-03T11:46:22;99362.72;;;33.32;39.18
69879;BME280;57161;43.136;24.706;2022-07-03T11:48:49;99353.03;;;33.65;37.46
69879;BME280;57161;43.136;24.706;2022-07-03T11:51:15;99348.47;;;34.11;37.08
69879;BME280;57161;43.136;24.706;2022-07-03T11:53:41;99354.75;;;34.64;36.21
69879;BME280;57161;43.136;24.706;2022-07-03T11:56:09;99356.50;;;35.01;35.58
69879;BME280;57161;43.136;24.706;2022-07-03T11:58:51;99357.91;;;34.94;35.21
69879;BME280;57161;43.136;24.706;2022-07-03T12:04:17;99352.38;;;35.39;33.53
69879;BME280;57161;43.136;24.706;2022-07-03T12:12:15;99350.91;;;35.36;37.13
69879;BME280;57161;43.136;24.706;2022-07-03T12:14:50;99344.38;;;35.35;36.86
69879;BME280;57161;43.136;24.706;2022-07-03T12:17:21;99342.09;;;35.15;37.02
69879;BME280;57161;43.136;24.706;2022-07-03T12:19:49;99338.38;;;35.05;37.36
69879;BME280;57161;43.136;24.706;2022-07-03T12:22:22;99334.56;;;34.78;37.91
69879;BME280;57161;43.136;24.706;2022-07-03T12:25:01;99336.56;;;33.82;38.75
69879;BME280;57161;43.136;24.706;2022-07-03T12:27:28;99337.63;;;33.49;39.64
69879;BME280;57161;43.136;24.706;2022-07-03T12:29:54;99317.44;;;32.54;40.92
69879;BME280;57161;43.136;24.706;2022-07-03T12:32:20;99333.31;;;32.51;41.53
69879;BME280;57161;43.136;24.706;2022-07-03T12:34:45;99325.38;;;32.53;41.01
69879;BME280;57161;43.136;24.706;2022-07-03T12:37:11;99326.19;;;32.58;40.75
69879;BME280;57161;43.136;24.706;2022-07-03T12:39:47;99323.47;;;32.70;40.24
69879;BME280;57161;43.136;24.706;2022-07-03T12:42:18;99320.59;;;32.70;39.82
69879;BME280;57161;43.136;24.706;2022-07-03T12:44:58;99303.28;;;32.72;40.36
69879;BME280;57161;43.136;24.706;2022-07-03T12:47:24;99302.19;;;32.96;39.81
69879;BME280;57161;43.136;24.706;2022-07-03T12:49:57;99296.84;;;33.30;39.96
69879;BME280;57161;43.136;24.706;2022-07-03T12:52:24;99307.38;;;33.62;39.25
69879;BME280;57161;43.136;24.706;2022-07-03T12:54:49;99302.31;;;33.62;38.97
69879;BME280;57161;43.136;24.706;2022-07-03T12:57:15;99290.81;;;33.68;38.77
69879;BME280;57161;43.136;24.706;2022-07-03T13:02:39;99302.91;;;34.19;37.44
69879;BME280;57161;43.136;24.706;2022-07-03T13:05:15;99294.81;;;34.08;37.70
69879;BME280;57161;43.136;24.706;2022-07-03T13:07:42;99303.41;;;33.97;37.35
69879;BME280;57161;43.136;24.706;2022-07-03T13:10:08;99301.94;;;33.94;37.37
69879;BME280;57161;43.136;24.706;2022-07-03T13:12:33;99298.28;;;33.88;37.88
69879;BME280;57161;43.136;24.706;2022-07-03T13:15:00;99306.34;;;33.99;38.08
69879;BME280;57161;43.136;24.706;2022-07-03T13:22:47;99291.63;;;33.79;38.01
69879;BME280;57161;43.136;24.706;2022-07-03T13:25:12;99290.91;;;33.81;38.68
69879;BME280;57161;43.136;24.706;2022-07-03T13:27:38;99286.53;;;33.76;40.08
69879;BME280;57161;43.136;24.706;2022-07-03T13:30:03;99301.75;;;33.78;38.94
69879;BME280;57161;43.136;24.706;2022-07-03T13:32:29;99290.19;;;33.82;39.38
69879;BME280;57161;43.136;24.706;2022-07-03T13:34:54;99299.72;;;33.87;40.13
69879;BME280;57161;43.136;24.706;2022-07-03T13:37:20;99291.00;;;33.85;40.70
69879;BME280;57161;43.136;24.706;2022-07-03T13:39:45;99296.81;;;33.87;40.44
69879;BME280;57161;43.136;24.706;2022-07-03T13:42:11;99298.06;;;33.71;42.86
69879;BME280;57161;43.136;24.706;2022-07-03T13:44:36;99296.28;;;33.42;43.00
69879;BME280;57161;43.136;24.706;2022-07-03T13:47:04;99287.00;;;32.95;41.79
69879;BME280;57161;43.136;24.706;2022-07-03T13:49:31;99284.28;;;32.59;42.00
69879;BME280;57161;43.136;24.706;2022-07-03T13:51:57;99292.59;;;32.37;46.83
69879;BME280;57161;43.136;24.706;2022-07-03T13:54:22;99303.59;;;31.66;50.49
69879;BME280;57161;43.136;24.706;2022-07-03T13:56:48;99295.81;;;31.04;52.29
69879;BME280;57161;43.136;24.706;2022-07-03T13:59:14;99295.44;;;30.58;52.74
69879;BME280;57161;43.136;24.706;2022-07-03T14:01:40;99289.56;;;30.52;52.96
69879;BME280;57161;43.136;24.706;2022-07-03T14:04:06;99296.16;;;30.27;53.94
69879;BME280;57161;43.136;24.706;2022-07-03T14:06:31;99274.78;;;30.08;53.88
69879;BME280;57161;43.136;24.706;2022-07-03T14:08:56;99290.88;;;29.91;53.48
69879;BME280;57161;43.136;24.706;2022-07-03T14:11:22;99274.59;;;29.74;53.00
69879;BME280;57161;43.136;24.706;2022-07-03T14:13:48;99270.53;;;29.57;53.26
69879;BME280;57161;43.136;24.706;2022-07-03T14:16:13;99290.25;;;29.67;54.50
69879;BME280;57161;43.136;24.706;2022-07-03T14:18:38;99284.50;;;29.67;53.32
69879;BME280;57161;43.136;24.706;2022-07-03T14:21:04;99292.72;;;29.78;53.81
69879;BME280;57161;43.136;24.706;2022-07-03T14:23:31;99287.06;;;29.82;54.46
69879;BME280;57161;43.136;24.706;2022-07-03T14:26:00;99301.72;;;29.93;53.07